< < Back
Terminal Aerodrome Forecast


Current Version              Previous Versions:   1  2  3  4  5  6  7  8  9  

Terminal Aerodrome Forecast

923
FTUS44 KBMX 302300
TAFTCL
TAF
KTCL 302321Z 0100/0124 00000KT P6SM SCT080
      TEMPO 0109/0112 5SM BR
     FM011400 14003KT P6SM SKC=



Latest METAR

586
SAUS70 KWBC 010800 RRR
MTRTCL
METAR KTCL 010753Z AUTO 00000KT 10SM CLR 17/16 A2992 RMK AO2 SLP128
T01670156


USA.gov is the U.S. government's official web portal to all federal, state and local government web resources and services.